Time;durP1;ratioP1;P1;durP2;ratioP2;P2;SDS_P1;SDS_P2;PMS_P1;PMS_P2;Temp;Humidity;BMP_temperature;BMP_pressure;BME280_temperature;BME280_humidity;BME280_pressure;Samples;Min_cycle;Max_cycle;Signal;HPM_P1;HPM_P2
2022/01/21 00:01:02;;;;;;;7.70;3.35;;;2.70;99.90;;;;;;5060483;28;20106;-76
2022/01/21 00:03:28;;;;;;;7.25;2.67;;;2.70;99.90;;;;;;5030172;28;20044;-75
2022/01/21 00:05:54;;;;;;;7.03;2.72;;;2.60;99.90;;;;;;5028254;28;20045;-76
2022/01/21 00:08:20;;;;;;;6.45;2.08;;;1.90;99.90;;;;;;5030628;28;20156;-76
2022/01/21 00:10:45;;;;;;;6.90;3.42;;;2.60;99.90;;;;;;5031072;28;20057;-76
2022/01/21 00:13:25;;;;;;;7.93;2.72;;;2.70;99.90;;;;;;5033752;28;20090;-76
2022/01/21 00:15:50;;;;;;;5.82;2.28;;;2.70;99.90;;;;;;5032234;28;20218;-76
2022/01/21 00:18:17;;;;;;;4.45;2.63;;;2.70;99.90;;;;;;5034215;28;20053;-76
2022/01/21 00:31:39;;;;;;;12.52;3.03;;;3.10;99.90;;;;;;5071913;28;21082;-76
2022/01/21 00:34:05;;;;;;;2.40;1.80;;;3.10;99.90;;;;;;5072556;28;20053;-75
2022/01/21 00:36:32;;;;;;;6.70;2.95;;;3.20;99.90;;;;;;5071965;28;20065;-74
2022/01/21 00:38:58;;;;;;;5.72;2.50;;;3.20;99.90;;;;;;5040210;28;20518;-75
2022/01/21 00:41:28;;;;;;;5.85;2.30;;;3.20;99.90;;;;;;5072210;28;20114;-75
2022/01/21 00:43:53;;;;;;;5.22;2.10;;;3.20;99.90;;;;;;5039019;28;20723;-75
2022/01/21 00:46:19;;;;;;;2.50;1.48;;;3.30;99.90;;;;;;5071416;28;20057;-74
2022/01/21 00:48:45;;;;;;;6.13;1.98;;;3.30;99.90;;;;;;5071517;28;20056;-75
2022/01/21 00:51:10;;;;;;;6.93;2.35;;;3.40;99.90;;;;;;5070506;28;20087;-75
2022/01/21 00:53:36;;;;;;;3.55;1.70;;;3.50;99.90;;;;;;5039689;28;20804;-74
2022/01/21 00:56:01;;;;;;;4.00;1.50;;;3.50;99.90;;;;;;5039234;28;20059;-75
2022/01/21 00:58:27;;;;;;;6.88;1.90;;;3.60;99.90;;;;;;5037453;28;20714;-74
2022/01/21 01:00:53;;;;;;;5.75;1.60;;;3.60;99.90;;;;;;5035075;28;20053;-74
2022/01/21 01:03:19;;;;;;;4.03;1.30;;;3.50;99.90;;;;;;5038278;28;20124;-75
2022/01/21 01:05:46;;;;;;;2.67;1.48;;;3.50;99.90;;;;;;5037302;28;20709;-74
2022/01/21 01:08:12;;;;;;;5.38;1.58;;;3.40;99.90;;;;;;5039148;28;20060;-75
2022/01/21 01:10:48;;;;;;;7.00;1.50;;;3.40;99.90;;;;;;5039321;28;20048;-74
2022/01/21 01:21:27;;;;;;;6.57;2.28;;;3.30;99.90;;;;;;5041153;28;20056;-74
2022/01/21 01:27:36;;;;;;;10.02;2.30;;;3.30;99.90;;;;;;5039753;28;20049;-75
2022/01/21 01:29:35;;;;;;;5.10;2.83;;;3.40;99.90;;;;;;5040796;28;20045;-75
2022/01/21 01:32:00;;;;;;;3.42;2.35;;;3.40;99.90;;;;;;5038134;28;20095;-76
2022/01/21 01:34:26;;;;;;;5.18;2.42;;;3.40;99.90;;;;;;5039089;28;20246;-76
2022/01/21 01:36:57;;;;;;;6.03;1.60;;;3.40;99.90;;;;;;5040532;28;20052;-79
2022/01/21 01:40:01;;;;;;;6.40;2.10;;;3.40;99.90;;;;;;5038357;28;20056;-78
2022/01/21 01:50:37;;;;;;;12.48;3.65;;;3.40;99.90;;;;;;5038963;28;20107;-77
2022/01/21 01:53:04;;;;;;;11.10;3.85;;;3.40;99.90;;;;;;5038708;28;20693;-79
2022/01/21 01:55:30;;;;;;;9.65;3.78;;;3.50;99.90;;;;;;5038772;28;20049;-79
2022/01/21 01:57:56;;;;;;;9.57;2.53;;;3.40;99.90;;;;;;5038826;28;20067;-79
2022/01/21 02:00:21;;;;;;;12.05;2.85;;;3.40;99.90;;;;;;5038992;28;20802;-79
2022/01/21 02:02:47;;;;;;;5.85;2.33;;;3.40;99.90;;;;;;5039855;28;20096;-80
2022/01/21 02:05:13;;;;;;;3.20;1.55;;;3.30;99.90;;;;;;5039315;28;20056;-78
2022/01/21 02:07:39;;;;;;;4.38;1.58;;;3.30;99.90;;;;;;5038192;28;20041;-79
2022/01/21 02:10:04;;;;;;;4.13;1.92;;;3.30;99.90;;;;;;5040417;28;20139;-76
2022/01/21 02:12:30;;;;;;;5.45;2.35;;;3.30;99.90;;;;;;5040567;28;20072;-76
2022/01/21 02:14:58;;;;;;;3.85;1.80;;;3.30;99.90;;;;;;5035912;28;20049;-76
2022/01/21 02:21:29;;;;;;;5.65;1.90;;;3.30;99.90;;;;;;5067405;28;20057;-79
2022/01/21 02:22:54;;;;;;;4.63;1.25;;;3.30;99.90;;;;;;5033855;28;20696;-75
2022/01/21 02:25:20;;;;;;;7.60;1.83;;;3.50;99.90;;;;;;5069060;28;20419;-77
2022/01/21 02:27:58;;;;;;;7.35;1.80;;;3.20;99.90;;;;;;5038214;28;20050;-76
2022/01/21 02:30:25;;;;;;;4.13;1.83;;;3.20;99.90;;;;;;5039045;28;20049;-75
2022/01/21 02:32:54;;;;;;;7.38;1.58;;;3.10;99.90;;;;;;5038533;28;20060;-74
2022/01/21 02:35:20;;;;;;;5.63;1.38;;;3.10;99.90;;;;;;5038887;28;20824;-74
2022/01/21 02:37:47;;;;;;;4.90;1.50;;;3.00;99.90;;;;;;5037939;28;21019;-75
2022/01/21 02:40:14;;;;;;;3.85;1.77;;;3.00;99.90;;;;;;5038510;28;20759;-75
2022/01/21 02:42:40;;;;;;;2.10;1.10;;;2.90;99.90;;;;;;5039096;28;20202;-75
2022/01/21 02:45:07;;;;;;;4.53;1.30;;;2.90;99.90;;;;;;5038229;28;20064;-76
2022/01/21 02:47:33;;;;;;;3.72;1.17;;;2.80;99.90;;;;;;5038917;28;20041;-76
2022/01/21 02:49:59;;;;;;;5.40;2.40;;;2.80;99.90;;;;;;5037448;28;20051;-75
2022/01/21 02:52:28;;;;;;;3.15;1.45;;;2.80;99.90;;;;;;5038188;28;20049;-75
2022/01/21 02:54:54;;;;;;;3.22;1.20;;;2.80;99.90;;;;;;5038484;28;20175;-75
2022/01/21 02:57:19;;;;;;;5.93;1.92;;;2.90;99.90;;;;;;5035341;28;20065;-76
2022/01/21 02:59:45;;;;;;;4.28;1.50;;;2.90;99.90;;;;;;5038375;28;20595;-77
2022/01/21 03:02:13;;;;;;;6.95;1.38;;;2.80;99.90;;;;;;5038629;28;20049;-77
2022/01/21 03:04:52;;;;;;;2.95;1.45;;;2.90;99.90;;;;;;5038555;28;20044;-77
2022/01/21 03:07:17;;;;;;;3.25;1.35;;;2.90;99.90;;;;;;5037047;28;20814;-77
2022/01/21 03:09:43;;;;;;;4.25;1.48;;;3.00;99.90;;;;;;5038102;28;20140;-77
2022/01/21 03:12:09;;;;;;;5.53;1.80;;;3.10;99.90;;;;;;5038541;28;20056;-77
2022/01/21 03:14:34;;;;;;;5.10;2.08;;;3.10;99.90;;;;;;5037614;28;20487;-78
2022/01/21 03:17:00;;;;;;;2.28;1.65;;;3.10;99.90;;;;;;5038102;28;20088;-78
2022/01/21 03:19:25;;;;;;;5.20;1.52;;;3.10;99.90;;;;;;5038720;28;20056;-79
2022/01/21 03:21:51;;;;;;;2.15;1.27;;;3.20;99.90;;;;;;5037442;28;20045;-78
2022/01/21 03:24:17;;;;;;;2.08;1.20;;;3.20;99.90;;;;;;5039435;28;20503;-78
2022/01/21 03:26:42;;;;;;;2.55;1.00;;;3.20;99.90;;;;;;5038217;28;20465;-78
2022/01/21 03:29:08;;;;;;;1.52;1.10;;;3.30;99.90;;;;;;5039386;28;20053;-78
2022/01/21 03:31:34;;;;;;;2.25;1.30;;;3.30;99.90;;;;;;5037091;28;20055;-78
2022/01/21 03:34:02;;;;;;;2.92;1.10;;;3.20;99.90;;;;;;5036680;28;20908;-78
2022/01/21 03:36:29;;;;;;;1.33;1.13;;;3.30;99.90;;;;;;5038171;28;20764;-78
2022/01/21 03:38:54;;;;;;;2.47;1.23;;;3.30;99.90;;;;;;5037225;28;20049;-78
2022/01/21 03:41:20;;;;;;;1.90;0.93;;;3.30;99.90;;;;;;5036232;28;20076;-78
2022/01/21 03:43:47;;;;;;;1.92;1.15;;;3.30;99.90;;;;;;5037330;28;20409;-78
2022/01/21 03:46:13;;;;;;;3.85;1.20;;;3.30;99.90;;;;;;5037141;28;20065;-77
2022/01/21 03:48:39;;;;;;;6.07;1.50;;;3.30;99.90;;;;;;5039067;28;20045;-77
2022/01/21 03:51:05;;;;;;;3.40;0.95;;;3.30;99.90;;;;;;5038965;28;20595;-77
2022/01/21 03:53:31;;;;;;;4.55;0.95;;;3.30;99.90;;;;;;5031805;28;20044;-77
2022/01/21 03:55:57;;;;;;;6.43;1.00;;;3.30;99.90;;;;;;5038098;28;20052;-77
2022/01/21 03:58:23;;;;;;;3.42;1.25;;;3.20;99.90;;;;;;5037209;28;20049;-76
2022/01/21 04:00:51;;;;;;;3.25;1.00;;;3.20;99.90;;;;;;5038357;28;20120;-76
2022/01/21 04:03:17;;;;;;;3.97;1.50;;;3.20;99.90;;;;;;5038389;28;20123;-76
2022/01/21 04:05:43;;;;;;;2.33;1.00;;;3.30;99.90;;;;;;5038052;28;20044;-76
2022/01/21 04:08:10;;;;;;;12.77;2.97;;;3.30;99.90;;;;;;5037717;28;20052;-76
2022/01/21 04:10:38;;;;;;;1.48;0.80;;;3.20;99.90;;;;;;5038583;28;21280;-76
2022/01/21 04:13:07;;;;;;;1.90;1.38;;;3.20;99.90;;;;;;5037219;28;20060;-76
2022/01/21 04:15:32;;;;;;;4.25;1.25;;;3.10;99.90;;;;;;5035847;28;20045;-76
2022/01/21 04:17:58;;;;;;;3.08;1.00;;;2.80;99.90;;;;;;5037003;28;20048;-76
2022/01/21 04:20:24;;;;;;;12.25;1.48;;;3.10;99.90;;;;;;5036767;28;20045;-76
2022/01/21 04:22:50;;;;;;;4.72;1.83;;;3.00;99.90;;;;;;5035936;28;20049;-76
2022/01/21 04:25:15;;;;;;;3.92;1.30;;;3.00;99.90;;;;;;5036181;28;20903;-76
2022/01/21 04:27:41;;;;;;;2.47;0.70;;;3.00;99.90;;;;;;5036295;28;20049;-76
2022/01/21 04:30:08;;;;;;;3.83;1.42;;;3.00;99.90;;;;;;5035509;28;20103;-75
2022/01/21 04:32:34;;;;;;;1.60;1.10;;;3.00;99.90;;;;;;5038355;28;20047;-76
2022/01/21 04:34:59;;;;;;;2.60;0.95;;;2.90;99.90;;;;;;5036696;28;20045;-76
2022/01/21 04:37:25;;;;;;;3.47;1.80;;;2.80;99.90;;;;;;5035409;28;20065;-76
2022/01/21 04:39:58;;;;;;;1.27;1.10;;;2.80;99.90;;;;;;5036615;28;20041;-77
2022/01/21 04:47:53;;;;;;;3.70;1.27;;;2.70;99.90;;;;;;5037812;28;20099;-76
2022/01/21 04:50:18;;;;;;;1.13;0.80;;;2.70;99.90;;;;;;5036929;28;20045;-76
2022/01/21 04:52:45;;;;;;;1.90;1.13;;;2.70;99.90;;;;;;5037170;28;20045;-76
2022/01/21 04:55:11;;;;;;;3.13;1.30;;;2.70;99.90;;;;;;5037393;28;20140;-76
2022/01/21 04:57:37;;;;;;;2.70;1.05;;;2.70;99.90;;;;;;5036979;28;20726;-76
2022/01/21 05:00:05;;;;;;;2.67;1.23;;;2.70;99.90;;;;;;5036078;28;20068;-76
2022/01/21 05:02:33;;;;;;;2.22;1.25;;;2.70;99.90;;;;;;5036184;28;20205;-76
2022/01/21 05:04:58;;;;;;;4.30;1.92;;;2.60;99.90;;;;;;5037554;28;20076;-75
2022/01/21 05:07:26;;;;;;;3.17;1.35;;;2.60;99.90;;;;;;5039498;28;20148;-76
2022/01/21 05:09:51;;;;;;;3.05;1.38;;;2.60;99.90;;;;;;5040256;28;20507;-76
2022/01/21 05:12:20;;;;;;;3.17;1.33;;;2.60;99.90;;;;;;5040375;28;20049;-75
2022/01/21 05:17:25;;;;;;;6.28;1.58;;;2.50;99.90;;;;;;5039432;28;20072;-76
2022/01/21 05:19:52;;;;;;;2.97;1.52;;;2.50;99.90;;;;;;5040650;28;20067;-76
2022/01/21 05:22:17;;;;;;;10.43;1.92;;;2.60;99.90;;;;;;5039513;28;20068;-75
2022/01/21 05:24:43;;;;;;;4.35;1.45;;;2.60;99.90;;;;;;5040307;28;20809;-76
2022/01/21 05:27:11;;;;;;;3.22;1.45;;;2.60;99.90;;;;;;5039323;28;20053;-76
2022/01/21 05:29:37;;;;;;;2.90;1.52;;;2.60;99.90;;;;;;5039565;28;20575;-76
2022/01/21 05:32:04;;;;;;;10.63;2.22;;;2.60;99.90;;;;;;5040206;28;20053;-75
2022/01/21 05:34:30;;;;;;;4.43;2.47;;;2.60;99.90;;;;;;5038964;28;20087;-76
2022/01/21 05:36:56;;;;;;;7.35;1.88;;;2.60;99.90;;;;;;5039008;28;20084;-76
2022/01/21 05:39:22;;;;;;;7.10;3.03;;;2.60;99.90;;;;;;5038017;28;20132;-76
2022/01/21 05:41:50;;;;;;;3.97;1.67;;;2.60;99.90;;;;;;5038919;28;20121;-76
2022/01/21 05:46:57;;;;;;;10.75;3.20;;;2.60;99.90;;;;;;5039061;28;20061;-76
2022/01/21 05:49:24;;;;;;;4.45;1.70;;;2.70;99.90;;;;;;5040467;28;20075;-75
2022/01/21 05:51:52;;;;;;;6.80;2.05;;;2.70;99.90;;;;;;5040643;28;20078;-76
2022/01/21 05:54:23;;;;;;;11.30;3.08;;;2.70;99.90;;;;;;5038406;28;20048;-76
2022/01/21 05:56:49;;;;;;;3.90;1.90;;;2.70;99.90;;;;;;5039419;28;20049;-76
2022/01/21 05:59:15;;;;;;;2.47;1.65;;;2.70;99.90;;;;;;5039202;28;20060;-75
2022/01/21 06:01:40;;;;;;;4.10;1.75;;;2.70;99.90;;;;;;5037776;28;20099;-76
2022/01/21 06:04:06;;;;;;;4.93;1.88;;;2.70;99.90;;;;;;5039989;28;20706;-76
2022/01/21 06:06:32;;;;;;;8.98;2.47;;;2.70;99.90;;;;;;5038004;28;20048;-75
2022/01/21 06:08:58;;;;;;;5.97;1.70;;;2.70;99.90;;;;;;5039871;28;20048;-76
2022/01/21 06:11:23;;;;;;;3.30;1.90;;;2.70;99.90;;;;;;5038294;28;20064;-76
2022/01/21 06:13:50;;;;;;;6.22;1.75;;;2.70;99.90;;;;;;5039012;28;20044;-76
2022/01/21 06:16:17;;;;;;;10.25;2.53;;;2.70;99.90;;;;;;5040455;28;20845;-77
2022/01/21 06:18:43;;;;;;;3.70;2.00;;;2.80;99.90;;;;;;5038934;28;20489;-79
2022/01/21 06:21:09;;;;;;;3.05;1.55;;;2.90;99.90;;;;;;5038606;28;20757;-78
2022/01/21 06:23:34;;;;;;;2.30;1.58;;;3.10;99.90;;;;;;5033307;28;20040;-78
2022/01/21 06:26:00;;;;;;;6.13;1.83;;;2.90;99.90;;;;;;5037304;28;20067;-78
2022/01/21 06:28:26;;;;;;;4.03;1.80;;;2.90;99.90;;;;;;5068151;28;20727;-77
2022/01/21 06:30:52;;;;;;;5.60;1.35;;;2.90;99.90;;;;;;5031518;28;20130;-78
2022/01/21 06:33:20;;;;;;;11.25;3.60;;;3.00;99.90;;;;;;5063849;28;20053;-78
2022/01/21 06:35:47;;;;;;;4.53;1.63;;;3.00;99.90;;;;;;5032769;28;20155;-78
2022/01/21 06:38:13;;;;;;;3.97;2.50;;;3.00;99.90;;;;;;5065085;28;20485;-76
2022/01/21 06:40:39;;;;;;;3.97;1.85;;;3.10;99.90;;;;;;5060610;28;20063;-77
2022/01/21 06:43:04;;;;;;;6.75;2.42;;;3.00;99.90;;;;;;5034590;28;20095;-76
2022/01/21 06:45:30;;;;;;;4.75;2.17;;;3.10;99.90;;;;;;5026030;28;20053;-77
2022/01/21 06:47:58;;;;;;;5.78;2.60;;;3.00;99.90;;;;;;5069293;28;20091;-76
2022/01/21 06:50:25;;;;;;;5.47;2.20;;;3.00;99.90;;;;;;5059830;28;20045;-77
2022/01/21 06:52:50;;;;;;;8.43;2.67;;;3.00;99.90;;;;;;5034345;28;20048;-77
2022/01/21 06:55:16;;;;;;;6.72;2.45;;;3.00;99.90;;;;;;5033166;28;20045;-77
2022/01/21 06:57:42;;;;;;;3.42;2.38;;;2.90;99.90;;;;;;5034915;28;20055;-76
2022/01/21 07:00:11;;;;;;;4.80;2.70;;;2.90;99.90;;;;;;5035778;28;20467;-76
2022/01/21 07:02:36;;;;;;;9.15;3.55;;;2.90;99.90;;;;;;5069415;28;20050;-76
2022/01/21 07:05:03;;;;;;;9.38;3.40;;;2.90;99.90;;;;;;5066279;28;20392;-76
2022/01/21 07:07:28;;;;;;;5.75;2.22;;;2.80;99.90;;;;;;5055600;28;20098;-76
2022/01/21 07:09:55;;;;;;;8.13;2.50;;;2.80;99.90;;;;;;5066984;28;20045;-76
2022/01/21 07:12:21;;;;;;;5.60;1.88;;;2.90;99.90;;;;;;5028164;28;20056;-76
2022/01/21 07:14:47;;;;;;;8.48;2.42;;;3.70;99.90;;;;;;5028979;28;20053;-76
2022/01/21 07:17:12;;;;;;;5.43;1.67;;;2.80;99.90;;;;;;5033457;28;20373;-76
2022/01/21 07:19:38;;;;;;;5.05;1.75;;;2.90;99.90;;;;;;5059204;28;20123;-76
2022/01/21 07:22:04;;;;;;;2.78;1.38;;;2.80;99.90;;;;;;5064750;28;20131;-75
2022/01/21 07:24:30;;;;;;;2.83;1.63;;;2.80;99.90;;;;;;5028776;28;20772;-75
2022/01/21 07:26:56;;;;;;;33.38;4.53;;;2.80;99.90;;;;;;5059293;28;20044;-75
2022/01/21 07:29:22;;;;;;;5.05;2.55;;;2.80;99.90;;;;;;5030616;28;20044;-75
2022/01/21 07:31:53;;;;;;;3.55;1.85;;;2.80;99.90;;;;;;5065129;28;20056;-76
2022/01/21 07:34:18;;;;;;;3.65;2.38;;;2.80;99.90;;;;;;5030245;28;20045;-75
2022/01/21 07:36:44;;;;;;;3.90;1.88;;;2.70;99.90;;;;;;5030494;28;20125;-75
2022/01/21 07:39:10;;;;;;;6.15;2.15;;;2.80;99.90;;;;;;5031449;28;20045;-76
2022/01/21 07:41:35;;;;;;;2.40;1.63;;;2.70;99.90;;;;;;5030656;28;20978;-76
2022/01/21 07:44:01;;;;;;;6.80;2.10;;;2.70;99.90;;;;;;5031797;28;20087;-75
2022/01/21 07:46:26;;;;;;;5.22;1.90;;;2.80;99.90;;;;;;5031376;28;20079;-75
2022/01/21 07:48:52;;;;;;;8.98;2.22;;;2.80;99.90;;;;;;5031239;28;20053;-76
2022/01/21 07:51:18;;;;;;;9.93;2.38;;;2.90;99.90;;;;;;5031965;28;20168;-76
2022/01/21 07:53:43;;;;;;;8.75;1.92;;;2.80;99.90;;;;;;5033604;28;20822;-76
2022/01/21 07:56:09;;;;;;;5.47;2.25;;;2.80;99.90;;;;;;5035588;28;20871;-76
2022/01/21 07:58:34;;;;;;;4.25;2.20;;;2.80;99.90;;;;;;5034549;28;20630;-76
2022/01/21 08:01:00;;;;;;;4.25;2.10;;;2.80;99.90;;;;;;5035305;28;20048;-76
2022/01/21 08:03:25;;;;;;;3.80;1.67;;;2.80;99.90;;;;;;5067204;28;20064;-76
2022/01/21 08:05:52;;;;;;;13.57;3.55;;;3.20;99.90;;;;;;5034800;28;20767;-76
2022/01/21 08:08:17;;;;;;;5.28;2.00;;;2.90;99.90;;;;;;5033582;28;20693;-76
2022/01/21 08:10:43;;;;;;;6.95;2.63;;;2.90;99.90;;;;;;5033145;28;20048;-76
2022/01/21 08:13:09;;;;;;;8.73;2.38;;;2.90;99.90;;;;;;5034142;28;20052;-76
2022/01/21 08:15:34;;;;;;;5.32;1.95;;;2.90;99.90;;;;;;5034671;28;20037;-75
2022/01/21 08:18:00;;;;;;;6.55;2.83;;;3.00;99.90;;;;;;5035568;28;20112;-76
2022/01/21 08:20:26;;;;;;;8.98;2.40;;;3.00;99.90;;;;;;5032142;28;20805;-76
2022/01/21 08:22:52;;;;;;;6.25;2.70;;;3.10;99.90;;;;;;5027273;28;20166;-76
2022/01/21 08:25:17;;;;;;;14.38;2.38;;;3.20;99.90;;;;;;5034383;28;20672;-75
2022/01/21 08:27:43;;;;;;;5.60;2.10;;;3.20;99.90;;;;;;5064234;28;20037;-76
2022/01/21 08:30:10;;;;;;;10.43;3.05;;;3.30;99.90;;;;;;5030762;28;20737;-77
2022/01/21 08:32:37;;;;;;;8.30;1.90;;;3.30;99.90;;;;;;5057430;28;20167;-76
2022/01/21 08:35:04;;;;;;;6.00;2.60;;;3.40;99.90;;;;;;5060473;28;20041;-76
2022/01/21 08:37:29;;;;;;;5.63;2.10;;;3.40;99.90;;;;;;5029835;28;20088;-75
2022/01/21 08:39:55;;;;;;;5.55;2.55;;;3.40;99.90;;;;;;5066356;28;20940;-76
2022/01/21 08:42:20;;;;;;;4.82;1.60;;;3.30;99.90;;;;;;5035874;28;20057;-76
2022/01/21 08:44:46;;;;;;;7.13;2.50;;;3.40;99.90;;;;;;5070444;28;20067;-76
2022/01/21 08:47:11;;;;;;;9.75;2.35;;;3.40;99.90;;;;;;5039683;28;20052;-76
2022/01/21 08:49:37;;;;;;;2.30;1.33;;;3.40;99.90;;;;;;5067775;28;20148;-76
2022/01/21 08:52:04;;;;;;;4.25;2.58;;;3.50;99.90;;;;;;5068299;28;20045;-77
2022/01/21 08:54:29;;;;;;;7.28;2.47;;;3.50;99.90;;;;;;5037052;28;20243;-76
2022/01/21 08:56:56;;;;;;;5.93;2.33;;;3.60;99.90;;;;;;5067137;28;20646;-76
2022/01/21 08:59:22;;;;;;;4.13;2.22;;;3.70;99.90;;;;;;5039024;28;20044;-77
2022/01/21 09:01:49;;;;;;;9.02;2.50;;;3.70;99.90;;;;;;5039533;28;20052;-76
2022/01/21 09:04:17;;;;;;;8.98;2.40;;;3.80;99.90;;;;;;5037454;28;21030;-76
2022/01/21 09:06:46;;;;;;;4.75;2.22;;;3.80;99.90;;;;;;5039406;28;20044;-77
2022/01/21 09:09:12;;;;;;;5.25;2.53;;;3.90;99.90;;;;;;5037682;28;20049;-79
2022/01/21 09:11:37;;;;;;;39.70;4.10;;;4.00;99.90;;;;;;5040126;28;20072;-78
2022/01/21 09:14:03;;;;;;;8.18;2.33;;;4.00;99.90;;;;;;5040495;28;20163;-78
2022/01/21 09:16:29;;;;;;;19.88;3.60;;;4.00;99.90;;;;;;5034438;28;20037;-79
2022/01/21 09:18:57;;;;;;;4.70;3.53;;;4.00;99.90;;;;;;5036145;28;20051;-79
2022/01/21 09:21:26;;;;;;;10.40;2.70;;;4.00;99.90;;;;;;5038023;28;20406;-78
2022/01/21 09:23:53;;;;;;;8.35;3.08;;;4.10;99.90;;;;;;5038017;28;20041;-78
2022/01/21 09:26:21;;;;;;;15.50;3.33;;;4.10;99.90;;;;;;5032996;28;20060;-78
2022/01/21 09:28:47;;;;;;;8.48;3.15;;;4.10;99.90;;;;;;5038705;28;20051;-79
2022/01/21 09:31:14;;;;;;;7.00;2.50;;;4.20;99.90;;;;;;5038181;28;20073;-79
2022/01/21 09:33:40;;;;;;;6.88;3.42;;;4.20;99.90;;;;;;5038757;28;20159;-79
2022/01/21 09:36:07;;;;;;;12.23;3.97;;;3.70;99.90;;;;;;5036937;28;20128;-80
2022/01/21 09:38:33;;;;;;;8.77;3.00;;;4.30;99.90;;;;;;5038911;28;20040;-78
2022/01/21 09:40:59;;;;;;;6.50;2.10;;;4.40;99.90;;;;;;5071880;28;20048;-79
2022/01/21 09:43:25;;;;;;;8.85;3.30;;;4.40;99.90;;;;;;5039040;28;20076;-79
2022/01/21 09:45:54;;;;;;;13.60;3.47;;;4.40;99.90;;;;;;5038400;28;20905;-79
2022/01/21 09:48:28;;;;;;;6.88;3.30;;;4.40;99.90;;;;;;5040027;28;20789;-79
2022/01/21 09:50:56;;;;;;;6.43;3.10;;;4.50;99.90;;;;;;5027220;28;20486;-79
2022/01/21 09:53:26;;;;;;;9.82;2.85;;;4.50;99.90;;;;;;5035814;28;20049;-79
2022/01/21 09:55:52;;;;;;;8.38;3.35;;;4.50;99.90;;;;;;5038223;28;20559;-80
2022/01/21 09:58:19;;;;;;;6.20;2.85;;;4.50;99.90;;;;;;5039039;28;20051;-80
2022/01/21 10:00:44;;;;;;;15.18;3.88;;;4.50;99.90;;;;;;5038545;28;20887;-79
2022/01/21 10:03:10;;;;;;;10.02;3.25;;;4.60;99.90;;;;;;5072423;28;20049;-80
2022/01/21 10:05:36;;;;;;;11.65;3.33;;;4.60;99.90;;;;;;5039050;28;20868;-79
2022/01/21 10:08:03;;;;;;;10.35;3.03;;;4.70;99.90;;;;;;5037236;28;20094;-79
2022/01/21 10:10:29;;;;;;;6.07;3.05;;;4.80;99.90;;;;;;5033370;28;20484;-79
2022/01/21 10:13:01;;;;;;;12.77;3.65;;;4.80;99.90;;;;;;5038448;28;20167;-78
2022/01/21 10:15:27;;;;;;;10.93;4.40;;;4.80;99.90;;;;;;5040288;28;20438;-78
2022/01/21 10:18:06;;;;;;;10.07;3.95;;;5.10;99.90;;;;;;5038297;28;20106;-78
2022/01/21 10:20:31;;;;;;;10.40;3.40;;;5.00;99.90;;;;;;5066190;28;20495;-78
2022/01/21 10:23:00;;;;;;;9.85;3.67;;;5.00;99.90;;;;;;5037176;28;20048;-78
2022/01/21 10:25:27;;;;;;;10.48;3.67;;;5.10;99.90;;;;;;5036356;28;20045;-78
2022/01/21 10:28:06;;;;;;;6.57;3.20;;;5.10;99.90;;;;;;5033714;28;20040;-78
2022/01/21 10:30:32;;;;;;;6.95;2.88;;;5.20;99.90;;;;;;5037123;28;20041;-77
2022/01/21 10:32:57;;;;;;;4.50;2.25;;;5.30;99.90;;;;;;5035799;28;20057;-76
2022/01/21 10:35:35;;;;;;;6.57;2.97;;;5.40;99.90;;;;;;5033876;28;20492;-76
2022/01/21 10:38:24;;;;;;;10.93;3.65;;;5.50;99.90;;;;;;5033445;28;20048;-76
2022/01/21 10:40:50;;;;;;;10.73;4.50;;;5.50;99.90;;;;;;5027369;28;20091;-76
2022/01/21 10:43:18;;;;;;;10.80;2.72;;;5.70;99.90;;;;;;5037679;28;20784;-76
2022/01/21 10:45:52;;;;;;;6.53;3.10;;;5.80;99.90;;;;;;5034117;28;20048;-76
2022/01/21 10:48:18;;;;;;;8.40;3.03;;;5.80;99.90;;;;;;5037813;28;20047;-77
2022/01/21 10:50:44;;;;;;;6.68;2.67;;;5.80;99.90;;;;;;5036800;28;20041;-78
2022/01/21 10:53:29;;;;;;;7.07;2.72;;;5.80;99.90;;;;;;5035921;28;20063;-77
2022/01/21 10:56:09;;;;;;;9.48;3.30;;;5.80;99.90;;;;;;5032739;28;20127;-77
2022/01/21 10:58:40;;;;;;;5.43;2.42;;;5.90;99.90;;;;;;5036435;28;20052;-77
2022/01/21 11:01:10;;;;;;;4.18;2.60;;;6.00;99.90;;;;;;5033620;28;20128;-78
2022/01/21 11:03:46;;;;;;;10.65;3.63;;;6.00;99.90;;;;;;5064648;28;20049;-80
2022/01/21 11:06:16;;;;;;;9.63;3.45;;;6.00;99.90;;;;;;5065528;28;20056;-81
2022/01/21 11:08:42;;;;;;;9.35;3.78;;;5.90;99.90;;;;;;5032240;28;20049;-80
2022/01/21 11:11:08;;;;;;;7.75;2.63;;;5.90;99.90;;;;;;5066212;28;20846;-80
2022/01/21 11:13:36;;;;;;;9.30;3.72;;;5.90;99.90;;;;;;5025473;28;20056;-80
2022/01/21 11:16:12;;;;;;;4.55;2.47;;;5.90;99.90;;;;;;5029877;28;20090;-79
2022/01/21 11:18:54;;;;;;;13.00;4.07;;;5.90;99.90;;;;;;5030605;28;20840;-78
2022/01/21 11:21:20;;;;;;;10.30;3.92;;;6.00;99.90;;;;;;5031795;28;20041;-79
2022/01/21 11:23:46;;;;;;;9.25;3.75;;;6.10;99.90;;;;;;5028803;28;20115;-79
2022/01/21 11:26:15;;;;;;;8.02;2.80;;;6.10;99.90;;;;;;5066675;28;20060;-79
2022/01/21 11:28:45;;;;;;;9.82;3.10;;;6.10;99.90;;;;;;5032741;28;20044;-80
2022/01/21 11:31:12;;;;;;;8.43;3.03;;;6.10;99.90;;;;;;5031129;28;20057;-80
2022/01/21 11:33:38;;;;;;;11.05;3.78;;;6.10;99.90;;;;;;5033540;28;20149;-79
2022/01/21 11:36:05;;;;;;;12.38;2.97;;;6.20;99.90;;;;;;5032951;28;20159;-79
2022/01/21 11:38:35;;;;;;;18.05;4.35;;;6.20;99.90;;;;;;5063654;28;20168;-79
2022/01/21 11:41:03;;;;;;;11.95;3.05;;;6.40;99.90;;;;;;5065396;28;20090;-79
2022/01/21 11:43:31;;;;;;;8.40;3.72;;;6.50;99.90;;;;;;5032107;28;20051;-79
2022/01/21 11:48:51;;;;;;;10.10;3.17;;;6.70;99.90;;;;;;5065206;28;20051;-79
2022/01/21 11:51:34;;;;;;;10.43;3.53;;;6.80;99.90;;;;;;5014317;28;20076;-78
2022/01/21 11:54:00;;;;;;;8.80;2.72;;;6.90;99.90;;;;;;5028793;28;20079;-80
2022/01/21 11:56:35;;;;;;;5.68;2.50;;;7.00;99.90;;;;;;5033360;28;20071;-78
2022/01/21 11:59:11;;;;;;;5.32;2.58;;;7.00;99.90;;;;;;5028757;28;20052;-78
2022/01/21 12:01:46;;;;;;;5.15;2.88;;;7.00;99.90;;;;;;5065235;28;20040;-78
2022/01/21 12:04:12;;;;;;;9.15;2.50;;;7.10;99.90;;;;;;5032616;28;20052;-79
2022/01/21 12:06:38;;;;;;;6.60;2.47;;;7.10;99.90;;;;;;5033656;28;20158;-78
2022/01/21 12:09:05;;;;;;;11.73;3.05;;;7.10;99.90;;;;;;5065859;28;20056;-78
2022/01/21 12:11:35;;;;;;;6.82;2.15;;;7.20;99.90;;;;;;5035125;28;20049;-77
2022/01/21 12:14:04;;;;;;;7.32;3.05;;;7.20;99.90;;;;;;5069074;28;20045;-78
2022/01/21 12:16:57;;;;;;;9.07;3.15;;;7.20;99.90;;;;;;5036644;28;20067;-78
2022/01/21 12:19:32;;;;;;;6.70;2.33;;;7.20;99.90;;;;;;5070509;28;20057;-77
2022/01/21 12:22:13;;;;;;;15.43;3.00;;;7.30;99.90;;;;;;5070066;28;20049;-78
2022/01/21 12:24:54;;;;;;;6.53;2.70;;;7.30;99.90;;;;;;5070568;28;20441;-78
2022/01/21 12:27:23;;;;;;;10.77;3.35;;;7.30;99.90;;;;;;5037096;28;20045;-78
2022/01/21 12:29:49;;;;;;;15.52;3.83;;;7.30;99.90;;;;;;5068999;28;20098;-76
2022/01/21 12:32:23;;;;;;;9.77;3.05;;;7.20;99.90;;;;;;5036963;28;20567;-77
2022/01/21 12:34:58;;;;;;;6.05;1.90;;;7.20;99.90;;;;;;5035284;28;20052;-76
2022/01/21 12:37:26;;;;;;;9.95;4.32;;;7.30;99.90;;;;;;5036493;28;20066;-77
2022/01/21 12:39:52;;;;;;;12.32;2.97;;;7.20;99.90;;;;;;5036841;28;20049;-76
2022/01/21 12:42:37;;;;;;;8.27;3.15;;;7.30;99.90;;;;;;5036358;28;20510;-75
2022/01/21 12:45:08;;;;;;;5.57;2.72;;;7.30;99.90;;;;;;5037353;28;20049;-76
2022/01/21 12:47:34;;;;;;;3.35;2.42;;;7.30;99.90;;;;;;5068406;28;20069;-78
2022/01/21 12:50:19;;;;;;;4.07;1.90;;;7.30;99.90;;;;;;5068686;28;20053;-77
2022/01/21 12:52:54;;;;;;;2.88;1.77;;;7.30;99.90;;;;;;5069154;28;20049;-77
2022/01/21 12:58:16;;;;;;;8.05;3.15;;;7.30;99.90;;;;;;5068952;28;20056;-76
2022/01/21 13:00:43;;;;;;;7.88;2.72;;;7.30;99.90;;;;;;5036902;28;20915;-75
2022/01/21 13:03:43;;;;;;;6.78;2.10;;;7.30;99.90;;;;;;5068955;28;20049;-77
2022/01/21 13:06:30;;;;;;;4.22;1.77;;;7.30;99.90;;;;;;5035134;28;20160;-76
2022/01/21 13:09:12;;;;;;;5.25;2.03;;;7.30;99.90;;;;;;5035827;28;20564;-76
2022/01/21 13:11:42;;;;;;;8.55;2.20;;;7.40;99.90;;;;;;5034197;28;20057;-75
2022/01/21 13:17:01;;;;;;;7.15;2.25;;;7.40;99.90;;;;;;5033497;28;20061;-76
2022/01/21 13:19:28;;;;;;;10.27;3.55;;;7.40;99.90;;;;;;5035476;28;20049;-76
2022/01/21 13:21:53;;;;;;;7.03;3.00;;;7.40;99.90;;;;;;5067851;28;20048;-75
2022/01/21 13:24:28;;;;;;;5.05;1.83;;;7.50;99.90;;;;;;5063648;28;20123;-75
2022/01/21 13:26:54;;;;;;;9.55;3.38;;;7.50;99.90;;;;;;5034256;28;20087;-75
2022/01/21 13:29:34;;;;;;;5.88;2.42;;;7.50;99.90;;;;;;5066246;28;20057;-75
2022/01/21 13:32:02;;;;;;;6.43;2.78;;;7.50;99.90;;;;;;5035351;28;20918;-75
2022/01/21 13:34:36;;;;;;;6.43;2.88;;;7.50;99.90;;;;;;5068804;28;20037;-75
2022/01/21 13:37:06;;;;;;;8.50;3.55;;;7.60;99.90;;;;;;5068033;28;20049;-77
2022/01/21 13:39:38;;;;;;;10.23;2.33;;;7.50;99.90;;;;;;5068054;28;20846;-75
2022/01/21 13:42:10;;;;;;;7.70;2.95;;;7.50;99.90;;;;;;5035570;28;20048;-75
2022/01/21 13:44:42;;;;;;;6.35;2.50;;;7.50;99.90;;;;;;5035997;28;20932;-76
2022/01/21 13:47:26;;;;;;;8.10;2.78;;;7.50;99.90;;;;;;5036549;28;20080;-75
2022/01/21 13:49:52;;;;;;;8.52;2.67;;;7.50;99.90;;;;;;5033953;28;20048;-77
2022/01/21 13:52:18;;;;;;;6.32;2.45;;;7.50;99.90;;;;;;5031284;28;20075;-76